createdAt,value
2023-05-19T00:00:26.032Z,32.7556
2023-05-19T00:01:27.861Z,32.7080
2023-05-19T00:02:29.787Z,32.7301
2023-05-19T00:03:31.625Z,32.7670
2023-05-19T00:04:33.373Z,32.7506
2023-05-19T00:05:35.242Z,32.8756
2023-05-19T00:06:37.048Z,32.9063
2023-05-19T00:07:38.910Z,32.9765
2023-05-19T00:08:40.739Z,32.9558
2023-05-19T00:09:42.557Z,32.8675
2023-05-19T00:10:44.418Z,32.9320
2023-05-19T00:11:46.255Z,32.9458
2023-05-19T00:12:48.191Z,32.9043
2023-05-19T00:13:49.926Z,32.8789
2023-05-19T00:14:51.745Z,32.8871
2023-05-19T00:15:53.625Z,32.8489
2023-05-19T00:16:56.043Z,32.9901
2023-05-19T00:17:57.303Z,33.0008
2023-05-19T00:18:59.111Z,32.9821
2023-05-19T00:20:00.954Z,32.9827
2023-05-19T00:21:02.766Z,32.9191
2023-05-19T00:22:04.624Z,32.9336
2023-05-19T00:23:06.462Z,32.9099
2023-05-19T00:24:08.304Z,32.9374
2023-05-19T00:25:10.124Z,33.0042
2023-05-19T00:26:11.983Z,33.0666
2023-05-19T00:27:13.809Z,33.0697
2023-05-19T00:28:15.650Z,33.0215
2023-05-19T00:29:17.498Z,32.9917
2023-05-19T00:30:19.324Z,32.9641
2023-05-19T00:31:21.180Z,32.9681
2023-05-19T00:32:23.040Z,32.9531
2023-05-19T00:33:24.830Z,32.9920
2023-05-19T00:34:26.685Z,33.0116
2023-05-19T00:35:28.500Z,33.0095
2023-05-19T00:36:30.363Z,32.9766
2023-05-19T00:37:32.190Z,32.9808
2023-05-19T00:38:34.046Z,32.9205
2023-05-19T00:39:35.882Z,32.9212
2023-05-19T00:40:37.706Z,32.9613
2023-05-19T00:41:39.564Z,32.9738
2023-05-19T00:42:41.408Z,32.9914
2023-05-19T00:43:43.228Z,33.0508
2023-05-19T00:44:45.073Z,33.0846
2023-05-19T00:45:46.928Z,33.0590
2023-05-19T00:46:48.793Z,33.0769
2023-05-19T00:47:50.600Z,33.1462
2023-05-19T00:48:52.475Z,33.1692
2023-05-19T00:49:54.274Z,33.0642
2023-05-19T00:50:56.125Z,33.0623
2023-05-19T00:51:57.972Z,33.0392
2023-05-19T00:52:59.801Z,33.0002
2023-05-19T00:54:01.654Z,32.9666
2023-05-19T00:55:03.483Z,32.9765
2023-05-19T00:56:05.342Z,32.9830
2023-05-19T00:57:07.169Z,32.9734
2023-05-19T00:58:08.998Z,32.9821
2023-05-19T00:59:10.838Z,32.9976
2023-05-19T01:00:12.700Z,33.0208
2023-05-19T01:01:14.648Z,33.0467
2023-05-19T01:02:16.361Z,33.0380
2023-05-19T01:03:18.253Z,33.0942
2023-05-19T01:04:20.051Z,33.1541
2023-05-19T01:05:21.883Z,33.1362
2023-05-19T01:06:23.720Z,33.1664
2023-05-19T01:07:25.545Z,33.1760
2023-05-19T01:08:27.413Z,33.1867
2023-05-19T01:09:29.275Z,33.1370
2023-05-19T01:10:31.166Z,33.1571
2023-05-19T01:11:32.904Z,33.1507
2023-05-19T01:12:34.760Z,33.1800
2023-05-19T01:13:36.778Z,33.2280
2023-05-19T01:14:38.432Z,33.2784
2023-05-19T01:15:40.280Z,33.2863
2023-05-19T01:16:42.129Z,33.3272
2023-05-19T01:17:43.961Z,33.3943
2023-05-19T01:18:45.828Z,33.3440
2023-05-19T01:19:47.635Z,33.3009
2023-05-19T01:20:49.464Z,33.2805
2023-05-19T01:21:51.310Z,33.3286
2023-05-19T01:22:53.141Z,33.3800
2023-05-19T01:23:54.970Z,33.3954
2023-05-19T01:24:56.819Z,33.3696
2023-05-19T01:25:58.638Z,33.3849
2023-05-19T01:27:00.504Z,33.4116
2023-05-19T01:28:02.315Z,33.4314
2023-05-19T01:29:04.166Z,33.4669
2023-05-19T01:30:05.990Z,33.4378
2023-05-19T01:31:07.840Z,33.4340
2023-05-19T01:32:09.769Z,33.3713
2023-05-19T01:33:11.525Z,33.3832
2023-05-19T01:34:13.353Z,33.3615
2023-05-19T01:35:15.195Z,33.3143
2023-05-19T01:36:17.015Z,33.3169
2023-05-19T01:37:18.874Z,33.3347
2023-05-19T01:38:20.728Z,33.2442
2023-05-19T01:39:22.551Z,33.2016
2023-05-19T01:40:24.378Z,33.2103
2023-05-19T01:41:26.214Z,33.2551
2023-05-19T01:42:28.067Z,33.2579
2023-05-19T01:43:29.888Z,33.2034
2023-05-19T01:44:31.741Z,33.2298
2023-05-19T01:45:33.620Z,33.2474
2023-05-19T01:46:35.584Z,33.2595
2023-05-19T01:47:37.294Z,33.2932
2023-05-19T01:48:39.077Z,33.2545
2023-05-19T01:49:40.933Z,33.2474
2023-05-19T01:50:42.754Z,33.2342
2023-05-19T01:51:44.628Z,33.2761
2023-05-19T01:52:46.450Z,33.2454
2023-05-19T01:53:48.280Z,33.1629
2023-05-19T01:54:50.120Z,33.1707
2023-05-19T01:55:51.989Z,33.1865
2023-05-19T01:56:53.803Z,33.1174
2023-05-19T01:57:55.649Z,33.0992
2023-05-19T01:58:57.492Z,33.0546
2023-05-19T01:59:59.311Z,33.1235
2023-05-19T02:01:01.255Z,33.1396
2023-05-19T02:02:02.999Z,33.0915
2023-05-19T02:03:04.925Z,33.1376
2023-05-19T02:04:06.714Z,33.1151
2023-05-19T02:05:08.511Z,33.0960
2023-05-19T02:06:10.355Z,33.0637
2023-05-19T02:07:12.199Z,33.0208
2023-05-19T02:08:14.023Z,33.0451
2023-05-19T02:09:15.869Z,33.1063
2023-05-19T02:10:17.717Z,33.1383
2023-05-19T02:11:19.540Z,33.1652
2023-05-19T02:12:21.388Z,33.1194
2023-05-19T02:13:23.208Z,33.0457
2023-05-19T02:14:25.075Z,33.0462
2023-05-19T02:15:26.893Z,33.0673
2023-05-19T02:16:28.774Z,33.1208
2023-05-19T02:17:30.593Z,33.1400
2023-05-19T02:18:32.412Z,33.2203
2023-05-19T02:19:34.273Z,33.2635
2023-05-19T02:20:36.074Z,33.2075
2023-05-19T02:21:37.924Z,33.1061
2023-05-19T02:22:39.781Z,33.1153
2023-05-19T02:23:41.586Z,33.1367
2023-05-19T02:24:43.425Z,33.1444
2023-05-19T02:25:45.259Z,33.1282
2023-05-19T02:26:47.106Z,33.1654
2023-05-19T02:27:48.944Z,33.2176
2023-05-19T02:28:50.770Z,33.1589
2023-05-19T02:29:52.640Z,33.1728
2023-05-19T02:30:54.473Z,33.1960
2023-05-19T02:31:56.305Z,33.2252
2023-05-19T02:32:58.207Z,33.1840
2023-05-19T02:33:59.970Z,33.2074
2023-05-19T02:35:01.802Z,33.2671
2023-05-19T02:36:03.641Z,33.3345
2023-05-19T02:37:05.485Z,33.3577
2023-05-19T02:38:07.321Z,33.3061
2023-05-19T02:39:09.148Z,33.2875
2023-05-19T02:40:11.032Z,33.2394
2023-05-19T02:41:12.826Z,33.1481
2023-05-19T02:42:14.665Z,33.2315
2023-05-19T02:43:16.503Z,33.2241
2023-05-19T02:44:18.340Z,33.2636
2023-05-19T02:45:20.200Z,33.2622
2023-05-19T02:46:22.020Z,33.3028
2023-05-19T02:47:23.949Z,33.2739
2023-05-19T02:48:25.772Z,33.2345
2023-05-19T02:49:27.615Z,33.2255
2023-05-19T02:50:29.519Z,33.1907
2023-05-19T02:51:31.274Z,33.1619
2023-05-19T02:52:33.132Z,33.1139
2023-05-19T02:53:34.965Z,33.1100
2023-05-19T02:54:36.782Z,33.1140
2023-05-19T02:55:38.618Z,33.1250
2023-05-19T02:56:40.471Z,33.1829
2023-05-19T02:57:42.307Z,33.3132
2023-05-19T02:58:44.132Z,33.3854
2023-05-19T02:59:45.988Z,33.3752
2023-05-19T03:00:47.819Z,33.3773
2023-05-19T03:01:49.688Z,33.4265
2023-05-19T03:02:51.573Z,33.4549
2023-05-19T03:03:53.470Z,33.4760
2023-05-19T03:04:55.150Z,33.4515
2023-05-19T03:05:57.007Z,33.4433
2023-05-19T03:06:58.855Z,33.4137
2023-05-19T03:08:00.693Z,33.3875
2023-05-19T03:09:02.517Z,33.3368
2023-05-19T03:10:04.356Z,33.3207
2023-05-19T03:11:06.183Z,33.3234
2023-05-19T03:12:08.086Z,33.2910
2023-05-19T03:13:09.892Z,33.3032
2023-05-19T03:14:11.696Z,33.3270
2023-05-19T03:15:13.526Z,33.2673
2023-05-19T03:16:15.473Z,33.2361
2023-05-19T03:17:17.252Z,33.1767
2023-05-19T03:18:19.154Z,33.1953
2023-05-19T03:19:20.897Z,33.2180
2023-05-19T03:20:22.734Z,33.2149
2023-05-19T03:21:24.582Z,33.1987
2023-05-19T03:22:26.392Z,33.2274
2023-05-19T03:23:28.267Z,33.2890
2023-05-19T03:24:30.086Z,33.2961
2023-05-19T03:25:31.907Z,33.3917
2023-05-19T03:26:33.734Z,33.3902
2023-05-19T03:27:35.588Z,33.4272
2023-05-19T03:28:37.410Z,33.4913
2023-05-19T03:29:39.243Z,33.5320
2023-05-19T03:30:41.099Z,33.5719
2023-05-19T03:31:42.947Z,33.5679
2023-05-19T03:32:44.864Z,33.5299
2023-05-19T03:33:46.598Z,33.5707
2023-05-19T03:34:48.445Z,33.5676
2023-05-19T03:35:50.289Z,33.6664
2023-05-19T03:36:52.113Z,33.6621
2023-05-19T03:37:53.956Z,33.6563
2023-05-19T03:38:55.813Z,33.5726
2023-05-19T03:39:57.640Z,33.5663
2023-05-19T03:40:59.464Z,33.5563
2023-05-19T03:42:01.338Z,33.5972
2023-05-19T03:43:03.160Z,33.5766
2023-05-19T03:44:04.994Z,33.5712
2023-05-19T03:45:06.848Z,33.5631
2023-05-19T03:46:08.732Z,33.5658
2023-05-19T03:47:10.503Z,33.5356
2023-05-19T03:48:12.379Z,33.5371
2023-05-19T03:49:14.202Z,33.4759
2023-05-19T03:50:16.026Z,33.5229
2023-05-19T03:51:17.870Z,33.5045
2023-05-19T03:52:19.698Z,33.5022
2023-05-19T03:53:21.553Z,33.4704
2023-05-19T03:54:23.399Z,33.5443
2023-05-19T03:55:25.207Z,33.5980
2023-05-19T03:56:27.055Z,33.5925
2023-05-19T03:57:28.913Z,33.6172
2023-05-19T03:58:30.723Z,33.6338
2023-05-19T03:59:32.587Z,33.6399
2023-05-19T04:00:34.636Z,33.6311
2023-05-19T04:01:36.241Z,33.6062
2023-05-19T04:02:38.328Z,33.5284
2023-05-19T04:03:39.961Z,33.4874
2023-05-19T04:04:41.818Z,33.4764
2023-05-19T04:05:43.612Z,33.5231
2023-05-19T04:06:45.446Z,33.5820
2023-05-19T04:07:47.277Z,33.5906
2023-05-19T04:08:49.117Z,33.6115
2023-05-19T04:09:50.982Z,33.5876
2023-05-19T04:10:52.811Z,33.6090
2023-05-19T04:11:54.633Z,33.7078
2023-05-19T04:12:56.495Z,33.7497
2023-05-19T04:13:58.352Z,33.8401
2023-05-19T04:15:00.202Z,33.8178
2023-05-19T04:16:02.076Z,33.7866
2023-05-19T04:17:03.864Z,33.7709
2023-05-19T04:18:05.706Z,33.7477
2023-05-19T04:19:07.552Z,33.8215
2023-05-19T04:20:09.376Z,33.7767
2023-05-19T04:21:11.203Z,33.7830
2023-05-19T04:22:13.043Z,33.7841
2023-05-19T04:23:14.886Z,33.7761
2023-05-19T04:24:16.741Z,33.7886
2023-05-19T04:25:18.576Z,33.7671
2023-05-19T04:26:20.420Z,33.7853
2023-05-19T04:27:22.241Z,33.7996
2023-05-19T04:28:24.092Z,33.7871
2023-05-19T04:29:25.966Z,33.8003
2023-05-19T04:30:27.790Z,33.8533
2023-05-19T04:31:29.636Z,33.9460
2023-05-19T04:32:31.483Z,33.9103
2023-05-19T04:33:33.301Z,33.8783
2023-05-19T04:34:35.177Z,33.8510
2023-05-19T04:35:36.974Z,33.7958
2023-05-19T04:36:38.825Z,33.8149
2023-05-19T04:37:40.642Z,33.8166
2023-05-19T04:38:42.501Z,33.8313
2023-05-19T04:39:44.339Z,33.8553
2023-05-19T04:40:46.177Z,33.8814
2023-05-19T04:41:48.008Z,33.9094
2023-05-19T04:42:49.869Z,33.8466
2023-05-19T04:43:51.687Z,33.8454
2023-05-19T04:44:53.523Z,33.8223
2023-05-19T04:45:55.379Z,33.8661
2023-05-19T04:46:57.260Z,33.8953
2023-05-19T04:47:59.099Z,33.9502
2023-05-19T04:49:00.890Z,33.9832
2023-05-19T04:50:02.735Z,34.0111
2023-05-19T04:51:04.571Z,34.0005
2023-05-19T04:52:06.427Z,33.9400
2023-05-19T04:53:08.266Z,33.9461
2023-05-19T04:54:10.216Z,33.8799
2023-05-19T04:55:11.955Z,33.8841
2023-05-19T04:56:13.775Z,33.9556
2023-05-19T04:57:15.626Z,33.8897
2023-05-19T04:58:17.472Z,33.8939
2023-05-19T04:59:19.300Z,33.9037
2023-05-19T05:00:21.137Z,33.9470
2023-05-19T05:01:23.018Z,33.9056
2023-05-19T05:02:24.958Z,33.8493
2023-05-19T05:03:26.770Z,33.8392
2023-05-19T05:04:28.510Z,33.8493
2023-05-19T05:05:30.335Z,33.8348
2023-05-19T05:06:32.173Z,33.8453
2023-05-19T05:07:34.024Z,33.8644
2023-05-19T05:08:35.866Z,33.8632
2023-05-19T05:09:37.706Z,33.8624
2023-05-19T05:10:39.548Z,33.7895
2023-05-19T05:11:41.395Z,33.8298
2023-05-19T05:12:43.232Z,33.8705
2023-05-19T05:13:45.082Z,33.8481
2023-05-19T05:14:46.968Z,33.8418
2023-05-19T05:15:48.774Z,33.8037
2023-05-19T05:16:50.708Z,33.8163
2023-05-19T05:17:52.453Z,33.8217
2023-05-19T05:18:54.344Z,33.8514
2023-05-19T05:19:56.116Z,33.7952
2023-05-19T05:20:57.940Z,33.7677
2023-05-19T05:21:59.773Z,33.7952
2023-05-19T05:23:01.603Z,33.8022
2023-05-19T05:24:03.463Z,33.7677
2023-05-19T05:25:05.302Z,33.6813
2023-05-19T05:26:07.135Z,33.6514
2023-05-19T05:27:08.955Z,33.6554
2023-05-19T05:28:10.793Z,33.6422
2023-05-19T05:29:12.623Z,33.6217
2023-05-19T05:30:14.590Z,33.6466
2023-05-19T05:31:16.312Z,33.6686
2023-05-19T05:32:18.180Z,33.6725
2023-05-19T05:33:20.074Z,33.6378
2023-05-19T05:34:21.807Z,33.6112
2023-05-19T05:35:23.703Z,33.6029
2023-05-19T05:36:25.501Z,33.6002
2023-05-19T05:37:27.317Z,33.6210
2023-05-19T05:38:29.145Z,33.6916
2023-05-19T05:39:30.996Z,33.7091
2023-05-19T05:40:32.845Z,33.7048
2023-05-19T05:41:34.671Z,33.7573
2023-05-19T05:42:36.509Z,33.7785
2023-05-19T05:43:38.331Z,33.8044
2023-05-19T05:44:40.169Z,33.8367
2023-05-19T05:45:42.057Z,33.7335
2023-05-19T05:46:43.842Z,33.6891
2023-05-19T05:47:45.701Z,33.6366
2023-05-19T05:48:47.538Z,33.5551
2023-05-19T05:49:50.585Z,33.5190
2023-05-19T05:50:51.201Z,33.4874
2023-05-19T05:52:05.034Z,33.4665
2023-05-19T05:52:55.879Z,33.4892
2023-05-19T05:53:56.696Z,33.5394
2023-05-19T05:54:58.536Z,33.5655
2023-05-19T05:56:00.377Z,33.5503
2023-05-19T05:57:02.220Z,33.6031
2023-05-19T05:58:04.067Z,33.5779
2023-05-19T05:59:05.896Z,33.6031
2023-05-19T06:00:07.728Z,33.5362
2023-05-19T06:01:09.561Z,33.5212
2023-05-19T06:02:11.468Z,33.5488
2023-05-19T06:03:13.347Z,33.5846
2023-05-19T06:04:15.095Z,33.5821
2023-05-19T06:05:16.978Z,33.5452
2023-05-19T06:06:18.781Z,33.5212
2023-05-19T06:07:20.611Z,33.5087
2023-05-19T06:08:22.437Z,33.5358
2023-05-19T06:09:24.274Z,33.5033
2023-05-19T06:10:26.144Z,33.4743
2023-05-19T06:11:27.995Z,33.4548
2023-05-19T06:12:29.817Z,33.4083
2023-05-19T06:13:31.637Z,33.3554
2023-05-19T06:14:33.490Z,33.2909
2023-05-19T06:15:35.357Z,33.3088
2023-05-19T06:16:37.247Z,33.2720
2023-05-19T06:17:39.036Z,33.2867
2023-05-19T06:18:40.864Z,33.2642
2023-05-19T06:19:42.684Z,33.2799
2023-05-19T06:20:44.546Z,33.2376
2023-05-19T06:21:46.374Z,33.1998
2023-05-19T06:22:48.224Z,33.2318
2023-05-19T06:23:50.033Z,33.1798
2023-05-19T06:24:51.874Z,33.0947
2023-05-19T06:25:53.724Z,33.1471
2023-05-19T06:26:55.549Z,33.1573
2023-05-19T06:27:57.401Z,33.1220
2023-05-19T06:28:59.250Z,33.1177
2023-05-19T06:30:01.096Z,33.1920
2023-05-19T06:31:02.955Z,33.2084
2023-05-19T06:32:04.780Z,33.1846
2023-05-19T06:33:06.725Z,33.2119
2023-05-19T06:34:08.433Z,33.2539
2023-05-19T06:35:10.263Z,33.2363
2023-05-19T06:36:12.110Z,33.2872
2023-05-19T06:37:13.952Z,33.3434
2023-05-19T06:38:15.798Z,33.2866
2023-05-19T06:39:17.614Z,33.2393
2023-05-19T06:40:19.453Z,33.2691
2023-05-19T06:41:21.304Z,33.2512
2023-05-19T06:42:23.153Z,33.2825
2023-05-19T06:43:24.972Z,33.2717
2023-05-19T06:44:26.818Z,33.2591
2023-05-19T06:45:28.651Z,33.2727
2023-05-19T06:46:30.506Z,33.2205
2023-05-19T06:47:32.358Z,33.1771
2023-05-19T06:48:34.166Z,33.1662
2023-05-19T06:49:36.008Z,33.2315
2023-05-19T06:50:37.938Z,33.2583
2023-05-19T06:51:39.753Z,33.2505
2023-05-19T06:52:41.578Z,33.2298
2023-05-19T06:53:43.414Z,33.2010
2023-05-19T06:54:45.276Z,33.1900
2023-05-19T06:55:57.989Z,33.2039
2023-05-19T06:56:49.942Z,33.2104
2023-05-19T06:57:50.758Z,33.2571
2023-05-19T06:58:52.613Z,33.2321
2023-05-19T06:59:54.458Z,33.2605
2023-05-19T07:00:56.290Z,33.1848
2023-05-19T07:01:58.136Z,33.2090
2023-05-19T07:03:00.244Z,33.3150
2023-05-19T07:04:01.957Z,33.3328
2023-05-19T07:05:03.667Z,33.3659
2023-05-19T07:06:07.867Z,33.3802
2023-05-19T07:07:07.316Z,33.4217
2023-05-19T07:08:09.168Z,33.4845
2023-05-19T07:09:11.016Z,33.4826
2023-05-19T07:10:12.859Z,33.5116
2023-05-19T07:11:14.690Z,33.5745
2023-05-19T07:12:16.523Z,33.5218
2023-05-19T07:13:18.362Z,33.4697
2023-05-19T07:14:20.221Z,33.5825
2023-05-19T07:15:22.064Z,33.5976
2023-05-19T07:16:23.940Z,33.5452
2023-05-19T07:17:25.775Z,33.4861
2023-05-19T07:18:27.613Z,33.4579
2023-05-19T07:19:29.484Z,33.4305
2023-05-19T07:20:31.378Z,33.4293
2023-05-19T07:21:33.073Z,33.3763
2023-05-19T07:22:34.937Z,33.4022
2023-05-19T07:23:36.772Z,33.3748
2023-05-19T07:24:38.618Z,33.4104
2023-05-19T07:25:40.437Z,33.3720
2023-05-19T07:26:42.282Z,33.3365
2023-05-19T07:27:44.098Z,33.3466
2023-05-19T07:28:45.934Z,33.3335
2023-05-19T07:29:47.799Z,33.3643
2023-05-19T07:30:49.632Z,33.3516
2023-05-19T07:31:51.492Z,33.3344
2023-05-19T07:32:53.351Z,33.3456
2023-05-19T07:33:55.150Z,33.3540
2023-05-19T07:34:56.978Z,33.3389
2023-05-19T07:35:58.843Z,33.3488
2023-05-19T07:37:00.687Z,33.3421
2023-05-19T07:38:02.516Z,33.3145
2023-05-19T07:39:04.374Z,33.3167
2023-05-19T07:40:06.169Z,33.3240
2023-05-19T07:41:08.034Z,33.3406
2023-05-19T07:42:09.887Z,33.2619
2023-05-19T07:43:11.700Z,33.2685
2023-05-19T07:44:13.527Z,33.2838
2023-05-19T07:45:15.381Z,33.2954
2023-05-19T07:46:17.270Z,33.3228
2023-05-19T07:47:19.056Z,33.4212
2023-05-19T07:48:20.896Z,33.4498
2023-05-19T07:49:22.726Z,33.4989
2023-05-19T07:50:24.608Z,33.4094
2023-05-19T07:51:26.414Z,33.3372
2023-05-19T07:52:28.237Z,33.3584
2023-05-19T07:53:30.098Z,33.3957
2023-05-19T07:54:31.930Z,33.4272
2023-05-19T07:55:33.777Z,33.5158
2023-05-19T07:56:35.609Z,33.5628
2023-05-19T07:57:37.440Z,33.6256
2023-05-19T07:58:39.278Z,33.6035
2023-05-19T07:59:41.115Z,33.6840
2023-05-19T08:00:42.978Z,33.6530
2023-05-19T08:01:44.806Z,33.5513
2023-05-19T08:02:46.687Z,33.4879
2023-05-19T08:03:48.571Z,33.5003
2023-05-19T08:04:50.457Z,33.5092
2023-05-19T08:05:52.155Z,33.4320
2023-05-19T08:06:54.004Z,33.3915
2023-05-19T08:07:55.836Z,33.4047
2023-05-19T08:08:57.659Z,33.4436
2023-05-19T08:09:59.509Z,33.4622
2023-05-19T08:11:01.340Z,33.4486
2023-05-19T08:12:03.199Z,33.4439
2023-05-19T08:13:05.029Z,33.4230
2023-05-19T08:14:06.854Z,33.3842
2023-05-19T08:15:08.694Z,33.3623
2023-05-19T08:16:10.585Z,33.3579
2023-05-19T08:17:12.390Z,33.3913
2023-05-19T08:18:14.273Z,33.4509
2023-05-19T08:19:16.146Z,33.4320
2023-05-19T08:20:17.890Z,33.3741
2023-05-19T08:21:19.737Z,33.4009
2023-05-19T08:22:21.581Z,33.4360
2023-05-19T08:23:23.416Z,33.5042
2023-05-19T08:24:25.255Z,33.5361
2023-05-19T08:25:27.100Z,33.5440
2023-05-19T08:26:28.915Z,33.4913
2023-05-19T08:27:30.773Z,33.4724
2023-05-19T08:28:32.634Z,33.4407
2023-05-19T08:29:34.426Z,33.4901
2023-05-19T08:30:36.266Z,33.4982
2023-05-19T08:31:38.246Z,33.4997
2023-05-19T08:32:39.960Z,33.5267
2023-05-19T08:33:41.764Z,33.5994
2023-05-19T08:34:43.610Z,33.5477
2023-05-19T08:35:45.434Z,33.6204
2023-05-19T08:36:47.273Z,33.6807
2023-05-19T08:37:49.125Z,33.7176
2023-05-19T08:38:50.940Z,33.7767
2023-05-19T08:39:52.778Z,33.8191
2023-05-19T08:40:54.621Z,33.7548
2023-05-19T08:41:56.452Z,33.7134
2023-05-19T08:42:58.297Z,33.7570
2023-05-19T08:44:00.154Z,33.7311
2023-05-19T08:45:01.970Z,33.7434
2023-05-19T08:46:03.795Z,33.7562
2023-05-19T08:47:05.671Z,33.7510
2023-05-19T08:48:07.481Z,33.7258
2023-05-19T08:49:09.293Z,33.6825
2023-05-19T08:50:11.164Z,33.6334
2023-05-19T08:51:12.973Z,33.6024
2023-05-19T08:52:14.793Z,33.6886
2023-05-19T08:53:31.950Z,33.6442
2023-05-19T08:54:20.637Z,33.6710
2023-05-19T08:55:21.204Z,33.6452
2023-05-19T08:56:22.757Z,33.6136
2023-05-19T08:57:24.332Z,33.6408
2023-05-19T08:58:26.855Z,33.6881
2023-05-19T08:59:27.666Z,33.6182
2023-05-19T09:00:29.606Z,33.5838
2023-05-19T09:01:31.421Z,33.5852
2023-05-19T09:02:33.225Z,33.6089
2023-05-19T09:03:35.039Z,33.6022
2023-05-19T09:04:36.986Z,33.5922
2023-05-19T09:05:38.701Z,33.6488
2023-05-19T09:06:40.490Z,33.7157
2023-05-19T09:07:42.330Z,33.6826
2023-05-19T09:08:44.180Z,33.6500
2023-05-19T09:09:46.028Z,33.6764
2023-05-19T09:10:47.840Z,33.6252
2023-05-19T09:11:49.684Z,33.5902
2023-05-19T09:12:51.531Z,33.5915
2023-05-19T09:13:53.346Z,33.6439
2023-05-19T09:14:55.199Z,33.6427
2023-05-19T09:15:57.035Z,33.5974
2023-05-19T09:16:58.901Z,33.6528
2023-05-19T09:18:00.752Z,33.6987
2023-05-19T09:19:02.569Z,33.6919
2023-05-19T09:20:04.365Z,33.6632
2023-05-19T09:21:06.202Z,33.6844
2023-05-19T09:22:08.052Z,33.7446
2023-05-19T09:23:09.885Z,33.7914
2023-05-19T09:24:11.711Z,33.8009
2023-05-19T09:25:13.556Z,33.7770
2023-05-19T09:26:15.400Z,33.7888
2023-05-19T09:27:17.232Z,33.8337
2023-05-19T09:28:19.058Z,33.8644
2023-05-19T09:29:20.910Z,33.8402
2023-05-19T09:30:22.748Z,33.8445
2023-05-19T09:31:24.615Z,33.8844
2023-05-19T09:32:26.552Z,33.9231
2023-05-19T09:33:28.249Z,33.9198
2023-05-19T09:34:30.080Z,33.7987
2023-05-19T09:35:32.143Z,33.7231
2023-05-19T09:36:33.771Z,33.7469
2023-05-19T09:37:35.607Z,33.7960
2023-05-19T09:38:37.440Z,33.8029
2023-05-19T09:39:39.274Z,33.7985
2023-05-19T09:40:41.121Z,33.7855
2023-05-19T09:41:42.957Z,33.8473
2023-05-19T09:42:44.783Z,33.8345
2023-05-19T09:43:46.622Z,33.7747
2023-05-19T09:44:48.487Z,33.7588
2023-05-19T09:45:50.333Z,33.7388
2023-05-19T09:46:52.139Z,33.7237
2023-05-19T09:47:54.024Z,33.6719
2023-05-19T09:48:55.830Z,33.6929
2023-05-19T09:49:57.675Z,33.7031
2023-05-19T09:50:59.519Z,33.7453
2023-05-19T09:52:01.330Z,33.7355
2023-05-19T09:53:03.166Z,33.7341
2023-05-19T09:54:05.003Z,33.7717
2023-05-19T09:55:07.262Z,33.8311
2023-05-19T09:56:08.761Z,33.9078
2023-05-19T09:57:10.531Z,33.9027
2023-05-19T09:58:12.862Z,33.9239
2023-05-19T09:59:14.205Z,33.9846
2023-05-19T10:00:16.024Z,34.0967
2023-05-19T10:01:17.865Z,34.0783
2023-05-19T10:02:19.695Z,34.0217
2023-05-19T10:03:21.557Z,34.0305
2023-05-19T10:04:23.469Z,34.0324
2023-05-19T10:05:25.246Z,34.0451
2023-05-19T10:06:27.051Z,34.1083
2023-05-19T10:07:28.889Z,34.1035
2023-05-19T10:08:31.046Z,34.1163
2023-05-19T10:09:32.575Z,34.1320
2023-05-19T10:10:34.435Z,34.1042
2023-05-19T10:11:36.231Z,34.0710
2023-05-19T10:12:38.070Z,34.0522
2023-05-19T10:13:39.908Z,34.0130
2023-05-19T10:14:41.760Z,34.0757
2023-05-19T10:15:57.309Z,33.9852
2023-05-19T10:16:46.477Z,33.9694
2023-05-19T10:17:47.293Z,34.0581
2023-05-19T10:18:49.136Z,34.0300
2023-05-19T10:19:50.918Z,34.0136
2023-05-19T10:20:52.759Z,34.0602
2023-05-19T10:21:54.603Z,34.0598
2023-05-19T10:22:56.454Z,34.0613
2023-05-19T10:23:58.326Z,34.1282
2023-05-19T10:25:00.179Z,34.1298
2023-05-19T10:26:01.959Z,34.1088
2023-05-19T10:27:03.786Z,34.0636
2023-05-19T10:28:05.665Z,34.0743
2023-05-19T10:29:07.474Z,34.0400
2023-05-19T10:30:11.507Z,34.0263
2023-05-19T10:31:11.142Z,34.0609
2023-05-19T10:32:13.006Z,34.1535
2023-05-19T10:33:14.918Z,34.1724
2023-05-19T10:34:16.656Z,34.2072
2023-05-19T10:35:18.486Z,34.2908
2023-05-19T10:36:20.335Z,34.2403
2023-05-19T10:37:22.164Z,34.1736
2023-05-19T10:38:24.003Z,34.1985
2023-05-19T10:39:25.828Z,34.1669
2023-05-19T10:40:27.670Z,34.1942
2023-05-19T10:41:29.518Z,34.2235
2023-05-19T10:42:31.348Z,34.2532
2023-05-19T10:43:33.210Z,34.2425
2023-05-19T10:44:35.009Z,34.2284
2023-05-19T10:45:36.844Z,34.1854
2023-05-19T10:46:38.748Z,34.1570
2023-05-19T10:47:40.589Z,34.1453
2023-05-19T10:48:42.371Z,34.2299
2023-05-19T10:49:44.208Z,34.2473
2023-05-19T10:50:46.031Z,34.2020
2023-05-19T10:51:47.872Z,34.1877
2023-05-19T10:52:49.709Z,34.2566
2023-05-19T10:53:51.631Z,34.2476
2023-05-19T10:54:53.471Z,34.2336
2023-05-19T10:55:55.286Z,34.1906
2023-05-19T10:56:57.125Z,34.1516
2023-05-19T10:57:58.960Z,34.1733
2023-05-19T10:59:00.822Z,34.2419
2023-05-19T11:00:02.667Z,34.2691
2023-05-19T11:01:04.487Z,34.2588
2023-05-19T11:02:06.370Z,34.2731
2023-05-19T11:03:08.270Z,34.2906
2023-05-19T11:04:10.062Z,34.1971
2023-05-19T11:05:11.846Z,34.1993
2023-05-19T11:06:13.666Z,34.1634
2023-05-19T11:07:15.508Z,34.2251
2023-05-19T11:08:17.367Z,34.2154
2023-05-19T11:09:22.486Z,34.1118
2023-05-19T11:10:22.016Z,34.1508
2023-05-19T11:11:23.398Z,34.2410
2023-05-19T11:12:25.211Z,34.3298
2023-05-19T11:13:28.448Z,34.3175
2023-05-19T11:14:28.403Z,34.2500
2023-05-19T11:15:30.290Z,34.2255
2023-05-19T11:16:32.108Z,34.3002
2023-05-19T11:17:35.074Z,34.3494
2023-05-19T11:18:35.766Z,34.4316
2023-05-19T11:19:37.604Z,34.4774
2023-05-19T11:20:39.531Z,34.6012
2023-05-19T11:21:41.263Z,34.5215
2023-05-19T11:22:43.109Z,34.4894
2023-05-19T11:23:45.045Z,34.5403
2023-05-19T11:24:46.789Z,34.5602
2023-05-19T11:25:48.632Z,34.5251
2023-05-19T11:26:50.456Z,34.5201
2023-05-19T11:27:52.312Z,34.5139
2023-05-19T11:28:54.138Z,34.5404
2023-05-19T11:29:55.981Z,34.5168
2023-05-19T11:30:57.986Z,34.4882
2023-05-19T11:31:59.683Z,34.4595
2023-05-19T11:33:01.551Z,34.4762
2023-05-19T11:34:03.342Z,34.4551
2023-05-19T11:35:05.167Z,34.4465
2023-05-19T11:36:07.020Z,34.4877
2023-05-19T11:37:08.852Z,34.4635
2023-05-19T11:38:10.683Z,34.4704
2023-05-19T11:39:12.511Z,34.4496
2023-05-19T11:40:14.347Z,34.4239
2023-05-19T11:41:17.308Z,34.4377
2023-05-19T11:42:18.035Z,34.4462
2023-05-19T11:43:19.874Z,34.4651
2023-05-19T11:44:21.710Z,34.4766
2023-05-19T11:45:23.570Z,34.4879
2023-05-19T11:46:25.430Z,34.4869
2023-05-19T11:47:27.239Z,34.4431
2023-05-19T11:48:29.152Z,34.4622
2023-05-19T11:49:30.900Z,34.4577
2023-05-19T11:50:32.746Z,34.4784
2023-05-19T11:51:34.573Z,34.4425
2023-05-19T11:52:36.416Z,34.5093
2023-05-19T11:53:38.255Z,34.5403
2023-05-19T11:54:40.121Z,34.5878
2023-05-19T11:55:41.961Z,34.6008
2023-05-19T11:56:43.787Z,34.6379
2023-05-19T11:57:56.086Z,34.6029
2023-05-19T11:58:48.455Z,34.6275
2023-05-19T11:59:49.282Z,34.5731
2023-05-19T12:00:51.151Z,34.6105
2023-05-19T12:01:52.971Z,34.6083
2023-05-19T12:02:54.888Z,34.5816
2023-05-19T12:03:56.762Z,34.5500
2023-05-19T12:04:58.533Z,34.5563
2023-05-19T12:06:00.341Z,34.5182
2023-05-19T12:07:02.148Z,34.5019
2023-05-19T12:08:03.981Z,34.5112
2023-05-19T12:09:05.836Z,34.5054
2023-05-19T12:10:07.679Z,34.5472
2023-05-19T12:11:09.521Z,34.5713
2023-05-19T12:12:11.341Z,34.5173
2023-05-19T12:13:13.184Z,34.4842
2023-05-19T12:14:15.052Z,34.5986
2023-05-19T12:15:16.865Z,34.5984
2023-05-19T12:16:18.748Z,34.6189
2023-05-19T12:17:20.551Z,34.7106
2023-05-19T12:18:22.395Z,34.6443
2023-05-19T12:19:24.301Z,34.6573
2023-05-19T12:20:26.079Z,34.6690
2023-05-19T12:21:33.848Z,34.6870
2023-05-19T12:22:32.984Z,34.7372
2023-05-19T12:23:33.591Z,34.7188
2023-05-19T12:24:35.108Z,34.7046
2023-05-19T12:25:36.907Z,34.6660
2023-05-19T12:26:38.236Z,34.6855
2023-05-19T12:27:39.783Z,34.7372